sensor_id;sensor_type;location;lat;lon;timestamp;P1;durP1;ratioP1;P2;durP2;ratioP2
63664;SDS011;49820;33.966;73.390;2022-10-16T00:01:49;13.93;;;9.98;;
63664;SDS011;49820;33.966;73.390;2022-10-16T00:04:17;13.07;;;9.75;;
63664;SDS011;49820;33.966;73.390;2022-10-16T00:06:46;15.15;;;10.95;;
63664;SDS011;49820;33.966;73.390;2022-10-16T00:09:15;12.85;;;8.20;;
63664;SDS011;49820;33.966;73.390;2022-10-16T00:11:45;12.30;;;8.75;;
63664;SDS011;49820;33.966;73.390;2022-10-16T00:14:14;14.02;;;8.85;;
63664;SDS011;49820;33.966;73.390;2022-10-16T00:16:46;14.50;;;9.87;;
63664;SDS011;49820;33.966;73.390;2022-10-16T00:19:15;14.50;;;9.73;;
63664;SDS011;49820;33.966;73.390;2022-10-16T00:21:44;11.00;;;8.82;;
63664;SDS011;49820;33.966;73.390;2022-10-16T00:24:13;13.73;;;7.78;;
63664;SDS011;49820;33.966;73.390;2022-10-16T00:26:42;17.58;;;8.27;;
63664;SDS011;49820;33.966;73.390;2022-10-16T00:29:12;11.38;;;8.15;;
63664;SDS011;49820;33.966;73.390;2022-10-16T00:31:41;11.48;;;7.40;;
63664;SDS011;49820;33.966;73.390;2022-10-16T00:34:09;13.65;;;7.65;;
63664;SDS011;49820;33.966;73.390;2022-10-16T00:36:39;11.68;;;7.85;;
63664;SDS011;49820;33.966;73.390;2022-10-16T00:39:07;14.93;;;8.45;;
63664;SDS011;49820;33.966;73.390;2022-10-16T00:41:37;12.50;;;8.23;;
63664;SDS011;49820;33.966;73.390;2022-10-16T00:47:24;10.75;;;7.00;;
63664;SDS011;49820;33.966;73.390;2022-10-16T00:50:04;10.05;;;5.75;;
63664;SDS011;49820;33.966;73.390;2022-10-16T00:52:36;10.18;;;5.53;;
63664;SDS011;49820;33.966;73.390;2022-10-16T00:55:10;7.10;;;5.18;;
63664;SDS011;49820;33.966;73.390;2022-10-16T00:57:40;7.28;;;5.20;;
63664;SDS011;49820;33.966;73.390;2022-10-16T01:00:11;7.15;;;4.95;;
63664;SDS011;49820;33.966;73.390;2022-10-16T01:02:44;8.15;;;4.85;;
63664;SDS011;49820;33.966;73.390;2022-10-16T01:05:12;7.13;;;4.83;;
63664;SDS011;49820;33.966;73.390;2022-10-16T01:07:52;7.33;;;4.80;;
63664;SDS011;49820;33.966;73.390;2022-10-16T01:13:12;9.10;;;5.00;;
63664;SDS011;49820;33.966;73.390;2022-10-16T01:30:14;8.25;;;6.15;;
63664;SDS011;49820;33.966;73.390;2022-10-16T01:32:57;9.77;;;6.55;;
63664;SDS011;49820;33.966;73.390;2022-10-16T01:35:39;8.32;;;6.00;;
63664;SDS011;49820;33.966;73.390;2022-10-16T01:38:45;7.90;;;5.43;;
63664;SDS011;49820;33.966;73.390;2022-10-16T01:41:12;6.70;;;4.97;;
63664;SDS011;49820;33.966;73.390;2022-10-16T01:43:49;8.80;;;5.47;;
63664;SDS011;49820;33.966;73.390;2022-10-16T01:46:32;8.25;;;5.80;;
63664;SDS011;49820;33.966;73.390;2022-10-16T01:49:04;7.93;;;5.72;;
63664;SDS011;49820;33.966;73.390;2022-10-16T01:51:34;9.27;;;6.05;;
63664;SDS011;49820;33.966;73.390;2022-10-16T01:54:07;7.32;;;5.35;;
63664;SDS011;49820;33.966;73.390;2022-10-16T01:56:38;7.82;;;5.43;;
63664;SDS011;49820;33.966;73.390;2022-10-16T01:59:11;8.68;;;5.22;;
63664;SDS011;49820;33.966;73.390;2022-10-16T02:01:45;7.40;;;5.22;;
63664;SDS011;49820;33.966;73.390;2022-10-16T02:04:22;6.32;;;4.78;;
63664;SDS011;49820;33.966;73.390;2022-10-16T02:06:56;7.47;;;4.93;;
63664;SDS011;49820;33.966;73.390;2022-10-16T02:09:25;7.65;;;5.25;;
63664;SDS011;49820;33.966;73.390;2022-10-16T02:11:56;6.93;;;5.03;;
63664;SDS011;49820;33.966;73.390;2022-10-16T02:14:27;7.82;;;4.90;;
63664;SDS011;49820;33.966;73.390;2022-10-16T02:16:57;8.55;;;5.28;;
63664;SDS011;49820;33.966;73.390;2022-10-16T02:19:26;7.43;;;5.10;;
63664;SDS011;49820;33.966;73.390;2022-10-16T02:22:04;9.18;;;5.10;;
63664;SDS011;49820;33.966;73.390;2022-10-16T02:24:54;7.67;;;4.90;;
63664;SDS011;49820;33.966;73.390;2022-10-16T02:27:35;7.45;;;5.40;;
63664;SDS011;49820;33.966;73.390;2022-10-16T02:33:01;9.82;;;5.97;;
63664;SDS011;49820;33.966;73.390;2022-10-16T02:35:34;8.43;;;6.17;;
63664;SDS011;49820;33.966;73.390;2022-10-16T02:38:04;8.20;;;6.13;;
63664;SDS011;49820;33.966;73.390;2022-10-16T02:40:34;7.15;;;5.40;;
63664;SDS011;49820;33.966;73.390;2022-10-16T02:43:05;7.45;;;5.03;;
63664;SDS011;49820;33.966;73.390;2022-10-16T02:45:35;6.95;;;4.80;;
63664;SDS011;49820;33.966;73.390;2022-10-16T02:48:04;6.07;;;4.73;;
63664;SDS011;49820;33.966;73.390;2022-10-16T02:50:34;7.15;;;4.93;;
63664;SDS011;49820;33.966;73.390;2022-10-16T02:53:02;7.90;;;5.30;;
63664;SDS011;49820;33.966;73.390;2022-10-16T02:55:32;7.90;;;5.18;;
63664;SDS011;49820;33.966;73.390;2022-10-16T02:58:01;7.65;;;4.90;;
63664;SDS011;49820;33.966;73.390;2022-10-16T03:00:30;7.03;;;4.75;;
63664;SDS011;49820;33.966;73.390;2022-10-16T03:02:58;8.63;;;5.40;;
63664;SDS011;49820;33.966;73.390;2022-10-16T03:05:28;9.95;;;6.13;;
63664;SDS011;49820;33.966;73.390;2022-10-16T03:07:56;11.05;;;6.32;;
63664;SDS011;49820;33.966;73.390;2022-10-16T03:10:28;9.53;;;6.70;;
63664;SDS011;49820;33.966;73.390;2022-10-16T03:12:57;12.98;;;7.30;;
63664;SDS011;49820;33.966;73.390;2022-10-16T03:15:26;11.55;;;7.70;;
63664;SDS011;49820;33.966;73.390;2022-10-16T03:17:59;12.18;;;8.18;;
63664;SDS011;49820;33.966;73.390;2022-10-16T03:20:30;15.35;;;8.50;;
63664;SDS011;49820;33.966;73.390;2022-10-16T03:22:59;12.82;;;8.20;;
63664;SDS011;49820;33.966;73.390;2022-10-16T03:25:28;11.80;;;8.60;;
63664;SDS011;49820;33.966;73.390;2022-10-16T03:27:57;14.75;;;8.32;;
63664;SDS011;49820;33.966;73.390;2022-10-16T03:30:26;12.40;;;7.72;;
63664;SDS011;49820;33.966;73.390;2022-10-16T03:32:55;9.85;;;7.50;;
63664;SDS011;49820;33.966;73.390;2022-10-16T03:35:24;12.20;;;7.70;;
63664;SDS011;49820;33.966;73.390;2022-10-16T03:37:54;11.50;;;7.72;;
63664;SDS011;49820;33.966;73.390;2022-10-16T03:40:24;13.30;;;8.23;;
63664;SDS011;49820;33.966;73.390;2022-10-16T03:42:53;14.27;;;8.43;;
63664;SDS011;49820;33.966;73.390;2022-10-16T03:45:26;12.13;;;8.25;;
63664;SDS011;49820;33.966;73.390;2022-10-16T03:47:55;13.63;;;8.10;;
63664;SDS011;49820;33.966;73.390;2022-10-16T03:50:24;11.33;;;7.83;;
63664;SDS011;49820;33.966;73.390;2022-10-16T03:52:53;12.00;;;7.90;;
63664;SDS011;49820;33.966;73.390;2022-10-16T03:55:22;12.13;;;7.20;;
63664;SDS011;49820;33.966;73.390;2022-10-16T03:57:51;11.43;;;8.18;;
63664;SDS011;49820;33.966;73.390;2022-10-16T04:00:20;13.75;;;8.25;;
63664;SDS011;49820;33.966;73.390;2022-10-16T04:02:49;11.65;;;8.32;;
63664;SDS011;49820;33.966;73.390;2022-10-16T04:05:18;12.30;;;8.07;;
63664;SDS011;49820;33.966;73.390;2022-10-16T04:07:47;15.77;;;8.55;;
63664;SDS011;49820;33.966;73.390;2022-10-16T04:10:16;14.32;;;8.32;;
63664;SDS011;49820;33.966;73.390;2022-10-16T04:12:45;14.38;;;8.80;;
63664;SDS011;49820;33.966;73.390;2022-10-16T04:15:14;12.23;;;8.18;;
63664;SDS011;49820;33.966;73.390;2022-10-16T04:17:43;14.60;;;9.13;;
63664;SDS011;49820;33.966;73.390;2022-10-16T04:20:12;12.18;;;8.48;;
63664;SDS011;49820;33.966;73.390;2022-10-16T04:22:41;17.17;;;9.65;;
63664;SDS011;49820;33.966;73.390;2022-10-16T04:25:11;15.93;;;9.50;;
63664;SDS011;49820;33.966;73.390;2022-10-16T04:27:39;13.90;;;9.30;;
63664;SDS011;49820;33.966;73.390;2022-10-16T04:30:12;17.27;;;10.45;;
63664;SDS011;49820;33.966;73.390;2022-10-16T04:32:41;15.30;;;9.47;;
63664;SDS011;49820;33.966;73.390;2022-10-16T04:35:11;17.10;;;10.38;;
63664;SDS011;49820;33.966;73.390;2022-10-16T04:37:39;15.35;;;10.25;;
63664;SDS011;49820;33.966;73.390;2022-10-16T04:40:09;19.33;;;9.90;;
63664;SDS011;49820;33.966;73.390;2022-10-16T04:42:39;15.32;;;8.35;;
63664;SDS011;49820;33.966;73.390;2022-10-16T04:45:08;17.27;;;9.00;;
63664;SDS011;49820;33.966;73.390;2022-10-16T04:47:43;14.60;;;9.60;;
63664;SDS011;49820;33.966;73.390;2022-10-16T04:50:12;12.57;;;8.93;;
63664;SDS011;49820;33.966;73.390;2022-10-16T04:53:00;14.35;;;9.38;;
63664;SDS011;49820;33.966;73.390;2022-10-16T04:55:29;14.45;;;8.38;;
63664;SDS011;49820;33.966;73.390;2022-10-16T04:57:58;15.23;;;9.32;;
63664;SDS011;49820;33.966;73.390;2022-10-16T05:00:27;16.90;;;8.80;;
63664;SDS011;49820;33.966;73.390;2022-10-16T05:02:56;14.57;;;8.65;;
63664;SDS011;49820;33.966;73.390;2022-10-16T05:05:32;14.90;;;8.45;;
63664;SDS011;49820;33.966;73.390;2022-10-16T05:08:01;16.92;;;9.77;;
63664;SDS011;49820;33.966;73.390;2022-10-16T05:10:32;14.70;;;9.20;;
63664;SDS011;49820;33.966;73.390;2022-10-16T05:13:00;12.88;;;8.75;;
63664;SDS011;49820;33.966;73.390;2022-10-16T05:15:29;14.27;;;9.10;;
63664;SDS011;49820;33.966;73.390;2022-10-16T05:17:59;15.48;;;9.07;;
63664;SDS011;49820;33.966;73.390;2022-10-16T05:20:28;14.20;;;8.77;;
63664;SDS011;49820;33.966;73.390;2022-10-16T05:22:57;14.95;;;9.15;;
63664;SDS011;49820;33.966;73.390;2022-10-16T05:25:27;13.93;;;8.82;;
63664;SDS011;49820;33.966;73.390;2022-10-16T05:27:56;13.70;;;9.60;;
63664;SDS011;49820;33.966;73.390;2022-10-16T05:30:25;14.13;;;9.15;;
63664;SDS011;49820;33.966;73.390;2022-10-16T05:32:54;12.50;;;8.55;;
63664;SDS011;49820;33.966;73.390;2022-10-16T05:35:24;15.23;;;9.35;;
63664;SDS011;49820;33.966;73.390;2022-10-16T05:37:53;13.73;;;9.45;;
63664;SDS011;49820;33.966;73.390;2022-10-16T05:40:23;13.75;;;9.60;;
63664;SDS011;49820;33.966;73.390;2022-10-16T05:42:54;13.00;;;8.82;;
63664;SDS011;49820;33.966;73.390;2022-10-16T05:45:25;13.75;;;8.93;;
63664;SDS011;49820;33.966;73.390;2022-10-16T05:47:54;13.10;;;8.93;;
63664;SDS011;49820;33.966;73.390;2022-10-16T05:50:23;12.32;;;8.40;;
63664;SDS011;49820;33.966;73.390;2022-10-16T05:52:52;12.73;;;8.88;;
63664;SDS011;49820;33.966;73.390;2022-10-16T05:55:21;14.52;;;9.23;;
63664;SDS011;49820;33.966;73.390;2022-10-16T05:57:53;16.33;;;10.77;;
63664;SDS011;49820;33.966;73.390;2022-10-16T06:00:24;17.33;;;10.87;;
63664;SDS011;49820;33.966;73.390;2022-10-16T06:02:53;16.58;;;10.13;;
63664;SDS011;49820;33.966;73.390;2022-10-16T06:05:22;14.77;;;9.93;;
63664;SDS011;49820;33.966;73.390;2022-10-16T06:07:51;13.70;;;9.17;;
63664;SDS011;49820;33.966;73.390;2022-10-16T06:10:20;15.30;;;9.10;;
63664;SDS011;49820;33.966;73.390;2022-10-16T06:12:49;15.15;;;9.50;;
63664;SDS011;49820;33.966;73.390;2022-10-16T06:15:18;15.48;;;9.38;;
63664;SDS011;49820;33.966;73.390;2022-10-16T06:17:47;16.67;;;8.98;;
63664;SDS011;49820;33.966;73.390;2022-10-16T06:20:16;14.87;;;9.30;;
63664;SDS011;49820;33.966;73.390;2022-10-16T06:22:45;13.10;;;8.87;;
63664;SDS011;49820;33.966;73.390;2022-10-16T06:25:15;14.25;;;8.95;;
63664;SDS011;49820;33.966;73.390;2022-10-16T06:27:43;14.75;;;8.98;;
63664;SDS011;49820;33.966;73.390;2022-10-16T06:30:13;12.13;;;9.07;;
63664;SDS011;49820;33.966;73.390;2022-10-16T06:32:42;12.38;;;8.65;;
63664;SDS011;49820;33.966;73.390;2022-10-16T06:35:11;14.05;;;9.13;;
63664;SDS011;49820;33.966;73.390;2022-10-16T06:37:40;14.10;;;8.93;;
63664;SDS011;49820;33.966;73.390;2022-10-16T06:40:09;16.02;;;9.93;;
63664;SDS011;49820;33.966;73.390;2022-10-16T06:42:38;14.55;;;9.68;;
63664;SDS011;49820;33.966;73.390;2022-10-16T06:45:08;14.43;;;10.00;;
63664;SDS011;49820;33.966;73.390;2022-10-16T06:47:38;14.13;;;9.32;;
63664;SDS011;49820;33.966;73.390;2022-10-16T06:50:07;15.73;;;9.10;;
63664;SDS011;49820;33.966;73.390;2022-10-16T06:52:36;15.50;;;9.67;;
63664;SDS011;49820;33.966;73.390;2022-10-16T06:55:05;14.02;;;9.05;;
63664;SDS011;49820;33.966;73.390;2022-10-16T06:57:34;15.73;;;8.80;;
63664;SDS011;49820;33.966;73.390;2022-10-16T07:00:03;14.43;;;9.20;;
63664;SDS011;49820;33.966;73.390;2022-10-16T07:02:32;12.02;;;9.20;;
63664;SDS011;49820;33.966;73.390;2022-10-16T07:05:01;13.65;;;9.18;;
63664;SDS011;49820;33.966;73.390;2022-10-16T07:07:31;11.35;;;9.05;;
63664;SDS011;49820;33.966;73.390;2022-10-16T07:10:00;14.02;;;9.07;;
63664;SDS011;49820;33.966;73.390;2022-10-16T07:12:29;12.85;;;8.20;;
63664;SDS011;49820;33.966;73.390;2022-10-16T07:14:58;12.50;;;8.80;;
63664;SDS011;49820;33.966;73.390;2022-10-16T07:17:28;13.02;;;8.52;;
63664;SDS011;49820;33.966;73.390;2022-10-16T07:19:57;14.87;;;9.60;;
63664;SDS011;49820;33.966;73.390;2022-10-16T07:22:27;14.93;;;9.00;;
63664;SDS011;49820;33.966;73.390;2022-10-16T07:24:57;11.13;;;8.60;;
63664;SDS011;49820;33.966;73.390;2022-10-16T07:27:26;12.05;;;8.95;;
63664;SDS011;49820;33.966;73.390;2022-10-16T07:29:56;12.70;;;8.38;;
63664;SDS011;49820;33.966;73.390;2022-10-16T07:32:27;14.68;;;9.20;;
63664;SDS011;49820;33.966;73.390;2022-10-16T07:34:56;17.33;;;9.20;;
63664;SDS011;49820;33.966;73.390;2022-10-16T07:37:26;13.18;;;8.93;;
63664;SDS011;49820;33.966;73.390;2022-10-16T07:39:55;12.50;;;8.52;;
63664;SDS011;49820;33.966;73.390;2022-10-16T07:42:25;15.60;;;8.82;;
63664;SDS011;49820;33.966;73.390;2022-10-16T07:44:56;13.00;;;8.23;;
63664;SDS011;49820;33.966;73.390;2022-10-16T07:47:25;14.02;;;9.23;;
63664;SDS011;49820;33.966;73.390;2022-10-16T07:49:55;14.43;;;8.50;;
63664;SDS011;49820;33.966;73.390;2022-10-16T07:52:24;13.88;;;8.90;;
63664;SDS011;49820;33.966;73.390;2022-10-16T07:54:53;11.95;;;8.73;;
63664;SDS011;49820;33.966;73.390;2022-10-16T07:57:27;14.23;;;8.48;;
63664;SDS011;49820;33.966;73.390;2022-10-16T07:59:57;14.27;;;9.25;;
63664;SDS011;49820;33.966;73.390;2022-10-16T08:02:26;13.63;;;8.85;;
63664;SDS011;49820;33.966;73.390;2022-10-16T08:04:55;14.37;;;8.77;;
63664;SDS011;49820;33.966;73.390;2022-10-16T08:07:24;11.57;;;8.27;;
63664;SDS011;49820;33.966;73.390;2022-10-16T08:09:53;13.98;;;8.82;;
63664;SDS011;49820;33.966;73.390;2022-10-16T08:12:27;14.43;;;9.30;;
63664;SDS011;49820;33.966;73.390;2022-10-16T08:14:57;17.10;;;9.18;;
63664;SDS011;49820;33.966;73.390;2022-10-16T08:17:25;13.05;;;8.85;;
63664;SDS011;49820;33.966;73.390;2022-10-16T08:19:55;14.73;;;9.32;;
63664;SDS011;49820;33.966;73.390;2022-10-16T08:22:24;11.93;;;7.97;;
63664;SDS011;49820;33.966;73.390;2022-10-16T08:24:53;12.68;;;8.50;;
63664;SDS011;49820;33.966;73.390;2022-10-16T08:27:22;13.00;;;8.57;;
63664;SDS011;49820;33.966;73.390;2022-10-16T08:29:52;13.38;;;8.50;;
63664;SDS011;49820;33.966;73.390;2022-10-16T08:32:21;13.00;;;8.85;;
63664;SDS011;49820;33.966;73.390;2022-10-16T08:34:53;14.68;;;9.55;;
63664;SDS011;49820;33.966;73.390;2022-10-16T08:37:22;14.48;;;8.45;;
63664;SDS011;49820;33.966;73.390;2022-10-16T08:39:51;14.48;;;9.18;;
63664;SDS011;49820;33.966;73.390;2022-10-16T08:42:28;12.80;;;8.50;;
63664;SDS011;49820;33.966;73.390;2022-10-16T08:48:05;11.30;;;7.70;;
63664;SDS011;49820;33.966;73.390;2022-10-16T08:50:44;16.00;;;8.70;;
63664;SDS011;49820;33.966;73.390;2022-10-16T08:53:39;11.70;;;8.23;;
63664;SDS011;49820;33.966;73.390;2022-10-16T08:56:19;11.77;;;7.78;;
63664;SDS011;49820;33.966;73.390;2022-10-16T08:58:48;11.68;;;7.88;;
63664;SDS011;49820;33.966;73.390;2022-10-16T09:01:23;13.03;;;7.90;;
63664;SDS011;49820;33.966;73.390;2022-10-16T09:04:18;12.52;;;8.00;;
63664;SDS011;49820;33.966;73.390;2022-10-16T09:09:54;15.63;;;8.52;;
63664;SDS011;49820;33.966;73.390;2022-10-16T09:15:34;13.00;;;7.75;;
63664;SDS011;49820;33.966;73.390;2022-10-16T09:23:38;13.48;;;7.68;;
63664;SDS011;49820;33.966;73.390;2022-10-16T09:26:09;13.23;;;7.82;;
63664;SDS011;49820;33.966;73.390;2022-10-16T09:28:42;13.48;;;8.15;;
63664;SDS011;49820;33.966;73.390;2022-10-16T09:31:13;12.27;;;7.35;;
63664;SDS011;49820;33.966;73.390;2022-10-16T09:33:47;11.95;;;7.80;;
63664;SDS011;49820;33.966;73.390;2022-10-16T09:36:27;13.25;;;8.20;;
63664;SDS011;49820;33.966;73.390;2022-10-16T09:39:05;13.45;;;7.85;;
63664;SDS011;49820;33.966;73.390;2022-10-16T09:41:41;11.50;;;7.50;;
63664;SDS011;49820;33.966;73.390;2022-10-16T09:44:17;11.87;;;7.10;;
63664;SDS011;49820;33.966;73.390;2022-10-16T09:46:48;11.52;;;7.78;;
63664;SDS011;49820;33.966;73.390;2022-10-16T09:49:21;10.43;;;7.00;;
63664;SDS011;49820;33.966;73.390;2022-10-16T09:52:12;9.73;;;7.40;;
63664;SDS011;49820;33.966;73.390;2022-10-16T09:55:17;11.43;;;7.28;;
63664;SDS011;49820;33.966;73.390;2022-10-16T09:57:52;10.40;;;7.47;;
63664;SDS011;49820;33.966;73.390;2022-10-16T10:00:23;15.85;;;7.60;;
63664;SDS011;49820;33.966;73.390;2022-10-16T10:02:54;11.07;;;7.90;;
63664;SDS011;49820;33.966;73.390;2022-10-16T10:05:25;12.32;;;8.07;;
63664;SDS011;49820;33.966;73.390;2022-10-16T10:08:01;11.32;;;7.20;;
63664;SDS011;49820;33.966;73.390;2022-10-16T10:10:37;11.73;;;7.33;;
63664;SDS011;49820;33.966;73.390;2022-10-16T10:13:21;14.48;;;8.35;;
63664;SDS011;49820;33.966;73.390;2022-10-16T10:15:56;13.18;;;7.70;;
63664;SDS011;49820;33.966;73.390;2022-10-16T10:18:25;11.83;;;7.83;;
63664;SDS011;49820;33.966;73.390;2022-10-16T10:21:01;11.90;;;7.40;;
63664;SDS011;49820;33.966;73.390;2022-10-16T10:23:33;10.10;;;7.97;;
63664;SDS011;49820;33.966;73.390;2022-10-16T10:29:02;12.98;;;7.95;;
63664;SDS011;49820;33.966;73.390;2022-10-16T10:31:43;11.73;;;7.80;;
63664;SDS011;49820;33.966;73.390;2022-10-16T10:37:30;12.95;;;7.80;;
63664;SDS011;49820;33.966;73.390;2022-10-16T10:43:17;15.68;;;7.18;;
63664;SDS011;49820;33.966;73.390;2022-10-16T10:45:49;13.27;;;7.80;;
63664;SDS011;49820;33.966;73.390;2022-10-16T10:51:19;13.63;;;7.95;;
63664;SDS011;49820;33.966;73.390;2022-10-16T10:57:29;13.05;;;8.35;;
63664;SDS011;49820;33.966;73.390;2022-10-16T11:00:28;15.27;;;7.82;;
63664;SDS011;49820;33.966;73.390;2022-10-16T11:03:21;15.27;;;7.70;;
63664;SDS011;49820;33.966;73.390;2022-10-16T11:05:58;14.98;;;9.70;;
63664;SDS011;49820;33.966;73.390;2022-10-16T11:11:10;13.75;;;8.30;;
63664;SDS011;49820;33.966;73.390;2022-10-16T11:25:29;43.90;;;22.83;;
63664;SDS011;49820;33.966;73.390;2022-10-16T11:28:19;27.75;;;15.48;;
63664;SDS011;49820;33.966;73.390;2022-10-16T11:36:11;18.67;;;12.48;;
63664;SDS011;49820;33.966;73.390;2022-10-16T11:42:11;25.92;;;14.60;;
63664;SDS011;49820;33.966;73.390;2022-10-16T11:44:35;23.40;;;13.75;;
63664;SDS011;49820;33.966;73.390;2022-10-16T11:47:09;20.50;;;12.98;;
63664;SDS011;49820;33.966;73.390;2022-10-16T11:50:33;28.10;;;16.15;;
63664;SDS011;49820;33.966;73.390;2022-10-16T11:55:52;29.58;;;16.70;;
63664;SDS011;49820;33.966;73.390;2022-10-16T11:58:24;26.77;;;15.93;;
63664;SDS011;49820;33.966;73.390;2022-10-16T12:06:45;25.48;;;16.17;;
63664;SDS011;49820;33.966;73.390;2022-10-16T12:09:29;22.88;;;15.57;;
63664;SDS011;49820;33.966;73.390;2022-10-16T12:12:05;24.90;;;16.55;;
63664;SDS011;49820;33.966;73.390;2022-10-16T12:15:26;24.85;;;15.57;;
63664;SDS011;49820;33.966;73.390;2022-10-16T12:18:22;24.10;;;15.88;;
63664;SDS011;49820;33.966;73.390;2022-10-16T12:20:56;27.13;;;16.20;;
63664;SDS011;49820;33.966;73.390;2022-10-16T12:23:46;26.48;;;16.23;;
63664;SDS011;49820;33.966;73.390;2022-10-16T12:26:27;23.85;;;16.60;;
63664;SDS011;49820;33.966;73.390;2022-10-16T12:31:47;26.40;;;16.83;;
63664;SDS011;49820;33.966;73.390;2022-10-16T12:34:42;30.27;;;16.60;;
63664;SDS011;49820;33.966;73.390;2022-10-16T12:37:20;31.90;;;17.60;;
63664;SDS011;49820;33.966;73.390;2022-10-16T12:39:52;28.43;;;17.80;;
63664;SDS011;49820;33.966;73.390;2022-10-16T12:42:33;29.88;;;18.35;;
63664;SDS011;49820;33.966;73.390;2022-10-16T12:45:13;31.53;;;17.63;;
63664;SDS011;49820;33.966;73.390;2022-10-16T12:48:00;27.92;;;17.58;;
63664;SDS011;49820;33.966;73.390;2022-10-16T12:50:35;29.23;;;18.55;;
63664;SDS011;49820;33.966;73.390;2022-10-16T12:53:19;32.30;;;20.08;;
63664;SDS011;49820;33.966;73.390;2022-10-16T12:58:45;32.47;;;20.23;;
63664;SDS011;49820;33.966;73.390;2022-10-16T13:01:26;30.63;;;20.15;;
63664;SDS011;49820;33.966;73.390;2022-10-16T13:04:01;32.88;;;20.45;;
63664;SDS011;49820;33.966;73.390;2022-10-16T13:12:27;33.08;;;20.52;;
63664;SDS011;49820;33.966;73.390;2022-10-16T13:15:19;33.75;;;20.02;;
63664;SDS011;49820;33.966;73.390;2022-10-16T13:23:45;33.67;;;20.83;;
63664;SDS011;49820;33.966;73.390;2022-10-16T13:29:30;35.80;;;20.83;;
63664;SDS011;49820;33.966;73.390;2022-10-16T13:32:01;36.25;;;20.80;;
63664;SDS011;49820;33.966;73.390;2022-10-16T13:35:29;33.85;;;19.52;;
63664;SDS011;49820;33.966;73.390;2022-10-16T13:38:17;29.50;;;18.65;;
63664;SDS011;49820;33.966;73.390;2022-10-16T13:40:49;34.95;;;19.95;;
63664;SDS011;49820;33.966;73.390;2022-10-16T13:43:35;31.55;;;19.65;;
63664;SDS011;49820;33.966;73.390;2022-10-16T13:46:18;36.05;;;20.65;;
63664;SDS011;49820;33.966;73.390;2022-10-16T13:48:57;37.60;;;19.50;;
63664;SDS011;49820;33.966;73.390;2022-10-16T13:51:27;30.13;;;18.58;;
63664;SDS011;49820;33.966;73.390;2022-10-16T13:53:58;35.35;;;19.45;;
63664;SDS011;49820;33.966;73.390;2022-10-16T13:56:28;32.30;;;17.97;;
63664;SDS011;49820;33.966;73.390;2022-10-16T14:01:29;29.20;;;16.50;;
63664;SDS011;49820;33.966;73.390;2022-10-16T14:04:18;30.35;;;16.38;;
63664;SDS011;49820;33.966;73.390;2022-10-16T14:06:49;36.72;;;16.80;;
63664;SDS011;49820;33.966;73.390;2022-10-16T14:09:21;29.70;;;14.93;;
63664;SDS011;49820;33.966;73.390;2022-10-16T14:12:03;24.88;;;15.20;;
63664;SDS011;49820;33.966;73.390;2022-10-16T14:14:46;21.75;;;14.02;;
63664;SDS011;49820;33.966;73.390;2022-10-16T14:17:22;21.85;;;13.65;;
63664;SDS011;49820;33.966;73.390;2022-10-16T14:19:58;23.17;;;13.35;;
63664;SDS011;49820;33.966;73.390;2022-10-16T14:22:36;20.65;;;12.25;;
63664;SDS011;49820;33.966;73.390;2022-10-16T14:28:01;25.30;;;12.45;;
63664;SDS011;49820;33.966;73.390;2022-10-16T14:36:00;20.98;;;11.32;;
63664;SDS011;49820;33.966;73.390;2022-10-16T14:39:06;16.48;;;11.82;;
63664;SDS011;49820;33.966;73.390;2022-10-16T14:41:49;21.23;;;12.50;;
63664;SDS011;49820;33.966;73.390;2022-10-16T14:44:19;17.95;;;13.05;;
63664;SDS011;49820;33.966;73.390;2022-10-16T14:46:55;19.60;;;11.60;;
63664;SDS011;49820;33.966;73.390;2022-10-16T14:49:24;19.52;;;12.18;;
63664;SDS011;49820;33.966;73.390;2022-10-16T14:51:56;20.33;;;12.45;;
63664;SDS011;49820;33.966;73.390;2022-10-16T14:54:26;17.42;;;12.15;;
63664;SDS011;49820;33.966;73.390;2022-10-16T14:56:55;16.83;;;12.18;;
63664;SDS011;49820;33.966;73.390;2022-10-16T14:59:40;19.15;;;11.95;;
63664;SDS011;49820;33.966;73.390;2022-10-16T15:02:31;18.23;;;12.55;;
63664;SDS011;49820;33.966;73.390;2022-10-16T15:05:12;19.65;;;12.85;;
63664;SDS011;49820;33.966;73.390;2022-10-16T15:07:46;23.17;;;12.75;;
63664;SDS011;49820;33.966;73.390;2022-10-16T15:10:17;18.67;;;13.18;;
63664;SDS011;49820;33.966;73.390;2022-10-16T15:12:47;23.33;;;13.33;;
63664;SDS011;49820;33.966;73.390;2022-10-16T15:17:51;19.83;;;12.80;;
63664;SDS011;49820;33.966;73.390;2022-10-16T15:20:24;23.23;;;12.80;;
63664;SDS011;49820;33.966;73.390;2022-10-16T15:22:54;17.92;;;11.90;;
63664;SDS011;49820;33.966;73.390;2022-10-16T15:28:04;24.13;;;13.13;;
63664;SDS011;49820;33.966;73.390;2022-10-16T15:30:35;23.33;;;12.82;;
63664;SDS011;49820;33.966;73.390;2022-10-16T15:33:05;23.23;;;13.30;;
63664;SDS011;49820;33.966;73.390;2022-10-16T15:35:39;23.48;;;14.43;;
63664;SDS011;49820;33.966;73.390;2022-10-16T15:38:12;25.87;;;14.57;;
63664;SDS011;49820;33.966;73.390;2022-10-16T15:40:42;24.10;;;14.73;;
63664;SDS011;49820;33.966;73.390;2022-10-16T15:43:12;21.30;;;14.13;;
63664;SDS011;49820;33.966;73.390;2022-10-16T15:45:41;24.08;;;14.73;;
63664;SDS011;49820;33.966;73.390;2022-10-16T15:48:11;23.37;;;15.30;;
63664;SDS011;49820;33.966;73.390;2022-10-16T15:50:42;26.52;;;16.17;;
63664;SDS011;49820;33.966;73.390;2022-10-16T15:53:11;21.60;;;14.30;;
63664;SDS011;49820;33.966;73.390;2022-10-16T15:55:41;21.98;;;14.30;;
63664;SDS011;49820;33.966;73.390;2022-10-16T16:01:07;27.13;;;16.20;;
63664;SDS011;49820;33.966;73.390;2022-10-16T16:03:40;25.92;;;15.38;;
63664;SDS011;49820;33.966;73.390;2022-10-16T16:06:10;23.83;;;15.10;;
63664;SDS011;49820;33.966;73.390;2022-10-16T16:08:41;24.52;;;15.82;;
63664;SDS011;49820;33.966;73.390;2022-10-16T16:11:11;21.50;;;15.52;;
63664;SDS011;49820;33.966;73.390;2022-10-16T16:13:42;25.95;;;15.77;;
63664;SDS011;49820;33.966;73.390;2022-10-16T16:16:15;24.13;;;15.20;;
63664;SDS011;49820;33.966;73.390;2022-10-16T16:18:48;24.02;;;15.98;;
63664;SDS011;49820;33.966;73.390;2022-10-16T16:21:21;25.83;;;16.50;;
63664;SDS011;49820;33.966;73.390;2022-10-16T16:23:50;26.60;;;15.27;;
63664;SDS011;49820;33.966;73.390;2022-10-16T16:26:26;29.00;;;16.42;;
63664;SDS011;49820;33.966;73.390;2022-10-16T16:29:02;27.05;;;16.55;;
63664;SDS011;49820;33.966;73.390;2022-10-16T16:31:32;24.00;;;14.73;;
63664;SDS011;49820;33.966;73.390;2022-10-16T16:34:02;23.17;;;14.40;;
63664;SDS011;49820;33.966;73.390;2022-10-16T16:36:32;20.48;;;13.93;;
63664;SDS011;49820;33.966;73.390;2022-10-16T16:39:02;25.23;;;15.23;;
63664;SDS011;49820;33.966;73.390;2022-10-16T16:41:31;26.43;;;14.67;;
63664;SDS011;49820;33.966;73.390;2022-10-16T16:44:02;18.17;;;11.60;;
63664;SDS011;49820;33.966;73.390;2022-10-16T16:46:34;20.80;;;12.10;;
63664;SDS011;49820;33.966;73.390;2022-10-16T16:49:03;19.00;;;12.57;;
63664;SDS011;49820;33.966;73.390;2022-10-16T16:51:33;19.35;;;11.75;;
63664;SDS011;49820;33.966;73.390;2022-10-16T16:54:07;19.17;;;12.07;;
63664;SDS011;49820;33.966;73.390;2022-10-16T16:56:38;19.27;;;11.68;;
63664;SDS011;49820;33.966;73.390;2022-10-16T16:59:14;18.88;;;11.55;;